sensor_id;sensor_type;location;lat;lon;timestamp;pressure;altitude;pressure_sealevel;temperature;humidity
43621;BME280;29213;50.770;7.298;2023-04-04T00:01:51;102089.25;;;0.40;48.60
43621;BME280;29213;50.770;7.298;2023-04-04T00:04:16;102046.75;;;0.09;48.63
43621;BME280;29213;50.770;7.298;2023-04-04T00:06:41;102072.56;;;0.19;48.25
43621;BME280;29213;50.770;7.298;2023-04-04T00:09:10;102075.88;;;0.24;48.41
43621;BME280;29213;50.770;7.298;2023-04-04T00:11:37;102095.78;;;0.30;48.78
43621;BME280;29213;50.770;7.298;2023-04-04T00:14:02;101957.34;;;-0.52;48.74
43621;BME280;29213;50.770;7.298;2023-04-04T00:16:27;102111.94;;;0.41;48.78
43621;BME280;29213;50.770;7.298;2023-04-04T00:18:53;102111.38;;;0.33;49.19
43621;BME280;29213;50.770;7.298;2023-04-04T00:21:18;101939.22;;;-0.80;49.00
43621;BME280;29213;50.770;7.298;2023-04-04T00:23:44;102064.66;;;-0.02;49.49
43621;BME280;29213;50.770;7.298;2023-04-04T00:26:09;102021.50;;;-0.40;49.01
43621;BME280;29213;50.770;7.298;2023-04-04T00:28:34;102071.88;;;-0.09;49.69
43621;BME280;29213;50.770;7.298;2023-04-04T00:31:00;102131.16;;;0.18;49.71
43621;BME280;29213;50.770;7.298;2023-04-04T00:33:26;102021.72;;;-0.46;49.59
43621;BME280;29213;50.770;7.298;2023-04-04T00:35:51;101993.69;;;-0.68;49.61
43621;BME280;29213;50.770;7.298;2023-04-04T00:38:17;102041.50;;;-0.39;49.76
43621;BME280;29213;50.770;7.298;2023-04-04T00:40:45;102054.38;;;-0.32;49.71
43621;BME280;29213;50.770;7.298;2023-04-04T00:43:12;102147.38;;;0.27;49.31
43621;BME280;29213;50.770;7.298;2023-04-04T00:45:38;101991.84;;;-0.89;49.63
43621;BME280;29213;50.770;7.298;2023-04-04T00:48:04;102121.22;;;0.02;49.84
43621;BME280;29213;50.770;7.298;2023-04-04T00:50:30;101976.16;;;-0.89;50.24
43621;BME280;29213;50.770;7.298;2023-04-04T00:52:56;101963.59;;;-1.05;49.76
43621;BME280;29213;50.770;7.298;2023-04-04T00:55:22;102152.28;;;0.13;49.40
43621;BME280;29213;50.770;7.298;2023-04-04T00:57:48;101902.78;;;-1.36;49.76
43621;BME280;29213;50.770;7.298;2023-04-04T01:00:14;102095.13;;;-0.25;50.09
43621;BME280;29213;50.770;7.298;2023-04-04T01:02:40;101918.63;;;-1.40;50.00
43621;BME280;29213;50.770;7.298;2023-04-04T01:05:05;102067.00;;;-0.44;49.51
43621;BME280;29213;50.770;7.298;2023-04-04T01:07:33;102058.47;;;-0.49;49.46
43621;BME280;29213;50.770;7.298;2023-04-04T01:09:59;102033.69;;;-0.64;49.90
43621;BME280;29213;50.770;7.298;2023-04-04T01:12:25;102044.13;;;-0.62;49.99
43621;BME280;29213;50.770;7.298;2023-04-04T01:14:51;101906.78;;;-1.51;49.70
43621;BME280;29213;50.770;7.298;2023-04-04T01:17:16;101911.16;;;-1.51;49.60
43621;BME280;29213;50.770;7.298;2023-04-04T01:19:48;102002.13;;;-1.10;49.60
43621;BME280;29213;50.770;7.298;2023-04-04T01:22:18;102039.31;;;-0.75;49.98
43621;BME280;29213;50.770;7.298;2023-04-04T01:24:45;102016.63;;;-1.00;50.24
43621;BME280;29213;50.770;7.298;2023-04-04T01:27:11;101941.75;;;-1.55;50.67
43621;BME280;29213;50.770;7.298;2023-04-04T01:29:37;102139.94;;;-0.33;50.32
43621;BME280;29213;50.770;7.298;2023-04-04T01:32:11;102150.81;;;-0.20;50.29
43621;BME280;29213;50.770;7.298;2023-04-04T01:37:37;102112.13;;;-0.61;50.52
43621;BME280;29213;50.770;7.298;2023-04-04T01:42:31;102137.59;;;-0.41;50.31
43621;BME280;29213;50.770;7.298;2023-04-04T01:44:57;102077.31;;;-0.90;50.42
43621;BME280;29213;50.770;7.298;2023-04-04T01:47:22;102135.50;;;-0.56;51.02
43621;BME280;29213;50.770;7.298;2023-04-04T01:49:48;101951.91;;;-1.73;50.63
43621;BME280;29213;50.770;7.298;2023-04-04T01:52:14;102045.81;;;-1.12;50.90
43621;BME280;29213;50.770;7.298;2023-04-04T01:54:39;102143.03;;;-0.47;51.04
43621;BME280;29213;50.770;7.298;2023-04-04T01:57:05;102047.34;;;-1.07;51.06
43621;BME280;29213;50.770;7.298;2023-04-04T01:59:30;102061.94;;;-0.99;50.99
43621;BME280;29213;50.770;7.298;2023-04-04T02:01:55;102086.22;;;-0.96;51.20
43621;BME280;29213;50.770;7.298;2023-04-04T02:04:21;102076.59;;;-0.95;51.35
43621;BME280;29213;50.770;7.298;2023-04-04T02:06:47;101992.94;;;-1.48;51.53
43621;BME280;29213;50.770;7.298;2023-04-04T02:09:12;102008.44;;;-1.43;51.82
43621;BME280;29213;50.770;7.298;2023-04-04T02:11:38;102121.28;;;-0.74;51.58
43621;BME280;29213;50.770;7.298;2023-04-04T02:14:03;102095.69;;;-0.91;51.56
43621;BME280;29213;50.770;7.298;2023-04-04T02:16:29;102151.50;;;-0.66;51.69
43621;BME280;29213;50.770;7.298;2023-04-04T02:18:55;101969.41;;;-1.75;51.43
43621;BME280;29213;50.770;7.298;2023-04-04T02:21:21;101983.53;;;-1.82;51.40
43621;BME280;29213;50.770;7.298;2023-04-04T02:23:46;102098.69;;;-1.04;51.44
43621;BME280;29213;50.770;7.298;2023-04-04T02:26:12;102075.81;;;-1.24;51.63
43621;BME280;29213;50.770;7.298;2023-04-04T02:28:38;101940.69;;;-2.03;50.96
43621;BME280;29213;50.770;7.298;2023-04-04T02:31:03;102099.75;;;-1.10;51.08
43621;BME280;29213;50.770;7.298;2023-04-04T02:33:29;102104.88;;;-1.07;51.22
43621;BME280;29213;50.770;7.298;2023-04-04T02:35:58;102063.22;;;-1.40;51.54
43621;BME280;29213;50.770;7.298;2023-04-04T02:38:24;102046.78;;;-1.43;51.98
43621;BME280;29213;50.770;7.298;2023-04-04T02:40:50;102072.50;;;-1.29;51.75
43621;BME280;29213;50.770;7.298;2023-04-04T02:43:16;102121.28;;;-1.01;51.77
43621;BME280;29213;50.770;7.298;2023-04-04T02:45:42;102040.09;;;-1.52;51.97
43621;BME280;29213;50.770;7.298;2023-04-04T02:48:07;102109.66;;;-1.20;51.75
43621;BME280;29213;50.770;7.298;2023-04-04T02:50:32;102093.28;;;-1.25;51.63
43621;BME280;29213;50.770;7.298;2023-04-04T02:52:59;102129.31;;;-1.08;52.05
43621;BME280;29213;50.770;7.298;2023-04-04T02:55:25;102012.94;;;-1.75;51.96
43621;BME280;29213;50.770;7.298;2023-04-04T02:57:50;102015.44;;;-1.70;52.06
43621;BME280;29213;50.770;7.298;2023-04-04T03:00:16;102008.53;;;-1.73;51.93
43621;BME280;29213;50.770;7.298;2023-04-04T03:02:42;101933.28;;;-2.17;52.37
43621;BME280;29213;50.770;7.298;2023-04-04T03:05:08;102057.19;;;-1.42;52.19
43621;BME280;29213;50.770;7.298;2023-04-04T03:07:33;102058.28;;;-1.48;51.79
43621;BME280;29213;50.770;7.298;2023-04-04T03:09:58;101984.56;;;-1.86;51.75
43621;BME280;29213;50.770;7.298;2023-04-04T03:12:24;102059.97;;;-1.47;51.79
43621;BME280;29213;50.770;7.298;2023-04-04T03:14:49;102099.13;;;-1.18;51.90
43621;BME280;29213;50.770;7.298;2023-04-04T03:17:14;102055.78;;;-1.52;51.71
43621;BME280;29213;50.770;7.298;2023-04-04T03:19:42;102104.44;;;-1.20;52.28
43621;BME280;29213;50.770;7.298;2023-04-04T03:22:07;102064.53;;;-1.53;51.64
43621;BME280;29213;50.770;7.298;2023-04-04T03:24:32;102021.69;;;-1.76;52.21
43621;BME280;29213;50.770;7.298;2023-04-04T03:26:58;101891.81;;;-2.57;52.22
43621;BME280;29213;50.770;7.298;2023-04-04T03:29:25;102121.28;;;-1.28;52.28
43621;BME280;29213;50.770;7.298;2023-04-04T03:31:51;101949.41;;;-2.33;51.89
43621;BME280;29213;50.770;7.298;2023-04-04T03:34:16;102118.78;;;-1.33;52.68
43621;BME280;29213;50.770;7.298;2023-04-04T03:36:42;102051.91;;;-1.67;52.29
43621;BME280;29213;50.770;7.298;2023-04-04T03:39:07;102039.25;;;-1.81;52.54
43621;BME280;29213;50.770;7.298;2023-04-04T03:41:34;102124.06;;;-1.35;52.38
43621;BME280;29213;50.770;7.298;2023-04-04T03:43:59;102075.94;;;-1.56;52.04
43621;BME280;29213;50.770;7.298;2023-04-04T03:46:25;102057.34;;;-1.75;52.06
43621;BME280;29213;50.770;7.298;2023-04-04T03:48:50;102066.47;;;-1.60;52.09
43621;BME280;29213;50.770;7.298;2023-04-04T03:51:22;102050.47;;;-1.78;52.44
43621;BME280;29213;50.770;7.298;2023-04-04T03:53:47;101948.75;;;-2.40;52.15
43621;BME280;29213;50.770;7.298;2023-04-04T03:56:13;102042.03;;;-1.86;52.58
43621;BME280;29213;50.770;7.298;2023-04-04T03:58:38;101678.94;;;-4.08;52.65
43621;BME280;29213;50.770;7.298;2023-04-04T04:01:04;102121.97;;;-1.52;52.52
43621;BME280;29213;50.770;7.298;2023-04-04T04:03:29;101992.78;;;-2.29;52.74
43621;BME280;29213;50.770;7.298;2023-04-04T04:05:55;101926.25;;;-2.74;52.74
43621;BME280;29213;50.770;7.298;2023-04-04T04:08:20;102101.34;;;-1.61;52.70
43621;BME280;29213;50.770;7.298;2023-04-04T04:10:46;102035.59;;;-2.04;52.52
43621;BME280;29213;50.770;7.298;2023-04-04T04:13:11;102115.41;;;-1.65;52.77
43621;BME280;29213;50.770;7.298;2023-04-04T04:15:37;102022.19;;;-2.22;52.75
43621;BME280;29213;50.770;7.298;2023-04-04T04:18:02;101965.78;;;-2.58;52.72
43621;BME280;29213;50.770;7.298;2023-04-04T04:20:28;102005.94;;;-2.32;52.57
43621;BME280;29213;50.770;7.298;2023-04-04T04:22:53;102101.69;;;-1.72;52.89
43621;BME280;29213;50.770;7.298;2023-04-04T04:25:18;101931.56;;;-2.78;52.69
43621;BME280;29213;50.770;7.298;2023-04-04T04:27:44;102102.81;;;-1.81;52.80
43621;BME280;29213;50.770;7.298;2023-04-04T04:30:10;102018.25;;;-2.37;52.57
43621;BME280;29213;50.770;7.298;2023-04-04T04:32:37;102028.53;;;-2.31;52.86
43621;BME280;29213;50.770;7.298;2023-04-04T04:35:02;102025.38;;;-2.42;53.24
43621;BME280;29213;50.770;7.298;2023-04-04T04:37:28;101975.63;;;-2.68;53.32
43621;BME280;29213;50.770;7.298;2023-04-04T04:39:53;101969.50;;;-2.67;53.24
43621;BME280;29213;50.770;7.298;2023-04-04T04:42:18;101881.47;;;-3.22;53.13
43621;BME280;29213;50.770;7.298;2023-04-04T04:44:44;101928.38;;;-2.88;53.55
43621;BME280;29213;50.770;7.298;2023-04-04T04:47:09;101987.38;;;-2.53;53.26
43621;BME280;29213;50.770;7.298;2023-04-04T04:49:35;101964.31;;;-2.68;53.66
43621;BME280;29213;50.770;7.298;2023-04-04T04:52:00;102005.47;;;-2.46;53.37
43621;BME280;29213;50.770;7.298;2023-04-04T04:54:26;101960.81;;;-2.67;53.21
43621;BME280;29213;50.770;7.298;2023-04-04T04:56:52;101966.19;;;-2.73;53.37
43621;BME280;29213;50.770;7.298;2023-04-04T04:59:18;102001.97;;;-2.47;53.39
43621;BME280;29213;50.770;7.298;2023-04-04T05:01:43;101991.22;;;-2.66;53.73
43621;BME280;29213;50.770;7.298;2023-04-04T05:04:09;101992.94;;;-2.65;53.39
43621;BME280;29213;50.770;7.298;2023-04-04T05:06:34;101968.19;;;-2.82;53.59
43621;BME280;29213;50.770;7.298;2023-04-04T05:08:59;102019.38;;;-2.46;54.03
43621;BME280;29213;50.770;7.298;2023-04-04T05:11:25;102045.97;;;-2.33;53.88
43621;BME280;29213;50.770;7.298;2023-04-04T05:13:51;101862.03;;;-3.41;53.48
43621;BME280;29213;50.770;7.298;2023-04-04T05:16:16;102137.28;;;-2.00;53.70
43621;BME280;29213;50.770;7.298;2023-04-04T05:18:44;102019.66;;;-2.57;53.37
43621;BME280;29213;50.770;7.298;2023-04-04T05:21:10;101975.00;;;-2.77;53.14
43621;BME280;29213;50.770;7.298;2023-04-04T05:23:35;101871.47;;;-3.37;53.00
43621;BME280;29213;50.770;7.298;2023-04-04T05:26:00;102053.13;;;-2.40;53.37
43621;BME280;29213;50.770;7.298;2023-04-04T05:28:27;102047.00;;;-2.38;53.63
43621;BME280;29213;50.770;7.298;2023-04-04T05:30:52;101762.25;;;-4.10;53.79
43621;BME280;29213;50.770;7.298;2023-04-04T05:33:18;101968.44;;;-2.91;54.00
43621;BME280;29213;50.770;7.298;2023-04-04T05:35:43;101911.97;;;-3.24;53.44
43621;BME280;29213;50.770;7.298;2023-04-04T05:38:09;101846.09;;;-3.62;53.24
43621;BME280;29213;50.770;7.298;2023-04-04T05:40:35;101871.00;;;-3.52;53.82
43621;BME280;29213;50.770;7.298;2023-04-04T05:43:01;102083.06;;;-2.21;54.30
43621;BME280;29213;50.770;7.298;2023-04-04T05:45:29;102070.31;;;-2.32;53.75
43621;BME280;29213;50.770;7.298;2023-04-04T05:47:55;102051.34;;;-2.39;54.07
43621;BME280;29213;50.770;7.298;2023-04-04T05:50:21;102034.50;;;-1.97;73.55
43621;BME280;29213;50.770;7.298;2023-04-04T05:52:46;101935.38;;;-0.01;78.04
43621;BME280;29213;50.770;7.298;2023-04-04T05:55:12;102108.97;;;1.77;61.22
43621;BME280;29213;50.770;7.298;2023-04-04T05:57:46;102059.53;;;0.84;54.90
43621;BME280;29213;50.770;7.298;2023-04-04T06:00:12;101974.53;;;-0.20;52.38
43621;BME280;29213;50.770;7.298;2023-04-04T06:02:37;101920.09;;;-0.82;51.82
43621;BME280;29213;50.770;7.298;2023-04-04T06:05:03;102037.25;;;-0.41;51.64
43621;BME280;29213;50.770;7.298;2023-04-04T06:07:28;102059.06;;;-0.41;52.06
43621;BME280;29213;50.770;7.298;2023-04-04T06:09:54;101891.34;;;-1.58;51.75
43621;BME280;29213;50.770;7.298;2023-04-04T06:12:19;102103.59;;;-0.42;52.07
43621;BME280;29213;50.770;7.298;2023-04-04T06:14:45;101913.34;;;-1.64;51.90
43621;BME280;29213;50.770;7.298;2023-04-04T06:17:10;101859.69;;;-2.02;52.14
43621;BME280;29213;50.770;7.298;2023-04-04T06:19:36;101949.38;;;-1.49;52.10
43621;BME280;29213;50.770;7.298;2023-04-04T06:22:01;101964.72;;;-1.38;52.21
43621;BME280;29213;50.770;7.298;2023-04-04T06:24:27;101986.16;;;-1.28;52.04
43621;BME280;29213;50.770;7.298;2023-04-04T06:26:52;102136.63;;;-0.38;52.12
43621;BME280;29213;50.770;7.298;2023-04-04T06:29:17;102080.28;;;-0.74;52.07
43621;BME280;29213;50.770;7.298;2023-04-04T06:31:43;102119.50;;;-0.47;52.30
43621;BME280;29213;50.770;7.298;2023-04-04T06:34:09;101943.47;;;-1.54;52.10
43621;BME280;29213;50.770;7.298;2023-04-04T06:36:35;101935.94;;;-1.36;53.62
43621;BME280;29213;50.770;7.298;2023-04-04T06:39:00;102084.31;;;-0.40;52.45
43621;BME280;29213;50.770;7.298;2023-04-04T06:41:26;102117.47;;;-0.15;52.29
43621;BME280;29213;50.770;7.298;2023-04-04T06:43:51;101661.22;;;-2.78;52.04
43621;BME280;29213;50.770;7.298;2023-04-04T06:46:17;101873.34;;;-1.41;51.27
43621;BME280;29213;50.770;7.298;2023-04-04T06:48:42;102136.00;;;0.28;51.33
43621;BME280;29213;50.770;7.298;2023-04-04T06:51:09;102111.09;;;0.17;50.59
43621;BME280;29213;50.770;7.298;2023-04-04T06:53:35;102123.63;;;0.32;50.03
43621;BME280;29213;50.770;7.298;2023-04-04T06:56:01;102014.28;;;-0.33;49.67
43621;BME280;29213;50.770;7.298;2023-04-04T06:58:27;102076.81;;;-0.01;49.62
43621;BME280;29213;50.770;7.298;2023-04-04T07:00:52;101950.13;;;-0.69;49.25
43621;BME280;29213;50.770;7.298;2023-04-04T07:03:18;102054.00;;;0.03;49.11
43621;BME280;29213;50.770;7.298;2023-04-04T07:05:44;102088.63;;;0.33;49.14
43621;BME280;29213;50.770;7.298;2023-04-04T07:08:09;101967.72;;;-0.48;48.81
43621;BME280;29213;50.770;7.298;2023-04-04T07:10:35;102154.88;;;0.83;48.42
43621;BME280;29213;50.770;7.298;2023-04-04T07:13:00;102053.09;;;0.26;48.10
43621;BME280;29213;50.770;7.298;2023-04-04T07:15:26;101936.50;;;-0.31;48.37
43621;BME280;29213;50.770;7.298;2023-04-04T07:17:54;102088.75;;;0.75;48.37
43621;BME280;29213;50.770;7.298;2023-04-04T07:20:20;102046.72;;;0.76;48.14
43621;BME280;29213;50.770;7.298;2023-04-04T07:22:45;102153.69;;;1.56;47.13
43621;BME280;29213;50.770;7.298;2023-04-04T07:25:10;102096.28;;;1.26;46.94
43621;BME280;29213;50.770;7.298;2023-04-04T07:27:37;101892.22;;;0.08;45.84
43621;BME280;29213;50.770;7.298;2023-04-04T07:30:03;102159.72;;;1.79;45.35
43621;BME280;29213;50.770;7.298;2023-04-04T07:32:29;102028.34;;;0.99;45.10
43621;BME280;29213;50.770;7.298;2023-04-04T07:34:55;102114.63;;;1.48;44.76
43621;BME280;29213;50.770;7.298;2023-04-04T07:37:20;102077.75;;;1.30;45.24
43621;BME280;29213;50.770;7.298;2023-04-04T07:39:46;102040.94;;;1.32;45.95
43621;BME280;29213;50.770;7.298;2023-04-04T07:42:14;102044.78;;;1.63;45.75
43621;BME280;29213;50.770;7.298;2023-04-04T07:44:40;101950.06;;;1.08;43.84
43621;BME280;29213;50.770;7.298;2023-04-04T07:47:05;101894.28;;;0.84;44.70
43621;BME280;29213;50.770;7.298;2023-04-04T07:49:31;102051.81;;;2.03;44.46
43621;BME280;29213;50.770;7.298;2023-04-04T07:51:56;102091.34;;;2.38;43.62
43621;BME280;29213;50.770;7.298;2023-04-04T07:54:22;102067.63;;;2.39;44.31
43621;BME280;29213;50.770;7.298;2023-04-04T07:56:49;102063.38;;;2.54;43.46
43621;BME280;29213;50.770;7.298;2023-04-04T07:59:15;102086.22;;;2.91;42.82
43621;BME280;29213;50.770;7.298;2023-04-04T08:01:40;102120.81;;;3.18;43.13
43621;BME280;29213;50.770;7.298;2023-04-04T08:04:05;102059.03;;;3.08;42.56
43621;BME280;29213;50.770;7.298;2023-04-04T08:06:31;102122.72;;;3.50;42.92
43621;BME280;29213;50.770;7.298;2023-04-04T08:08:58;102141.78;;;3.73;42.26
43621;BME280;29213;50.770;7.298;2023-04-04T08:11:24;101984.50;;;2.90;42.02
43621;BME280;29213;50.770;7.298;2023-04-04T08:13:49;102076.53;;;3.60;40.68
43621;BME280;29213;50.770;7.298;2023-04-04T08:16:15;102130.41;;;3.88;40.09
43621;BME280;29213;50.770;7.298;2023-04-04T08:18:40;101778.91;;;1.93;40.59
43621;BME280;29213;50.770;7.298;2023-04-04T08:21:06;102048.53;;;3.42;37.74
43621;BME280;29213;50.770;7.298;2023-04-04T08:23:31;102099.09;;;3.66;39.67
43621;BME280;29213;50.770;7.298;2023-04-04T08:25:57;101966.47;;;2.64;37.15
43621;BME280;29213;50.770;7.298;2023-04-04T08:28:24;102072.34;;;2.87;37.81
43621;BME280;29213;50.770;7.298;2023-04-04T08:30:53;101856.56;;;1.64;38.97
43621;BME280;29213;50.770;7.298;2023-04-04T08:33:22;102119.59;;;3.43;37.88
43621;BME280;29213;50.770;7.298;2023-04-04T08:35:49;102085.16;;;3.46;39.81
43621;BME280;29213;50.770;7.298;2023-04-04T08:38:14;102043.53;;;3.37;37.66
43621;BME280;29213;50.770;7.298;2023-04-04T08:40:40;102043.50;;;3.71;38.01
43621;BME280;29213;50.770;7.298;2023-04-04T08:43:06;102035.84;;;3.82;37.28
43621;BME280;29213;50.770;7.298;2023-04-04T08:45:32;102124.34;;;4.20;35.49
43621;BME280;29213;50.770;7.298;2023-04-04T08:48:00;102016.78;;;3.27;35.49
43621;BME280;29213;50.770;7.298;2023-04-04T08:50:28;102067.81;;;3.76;36.44
43621;BME280;29213;50.770;7.298;2023-04-04T08:52:55;102001.06;;;3.59;37.15
43621;BME280;29213;50.770;7.298;2023-04-04T08:55:24;102099.16;;;4.14;36.06
43621;BME280;29213;50.770;7.298;2023-04-04T08:57:50;101902.59;;;2.96;37.37
43621;BME280;29213;50.770;7.298;2023-04-04T09:00:15;102059.44;;;3.85;35.57
43621;BME280;29213;50.770;7.298;2023-04-04T09:02:49;102076.97;;;4.19;36.52
43621;BME280;29213;50.770;7.298;2023-04-04T09:05:18;102093.56;;;4.53;35.99
43621;BME280;29213;50.770;7.298;2023-04-04T09:07:44;101866.72;;;3.43;36.14
43621;BME280;29213;50.770;7.298;2023-04-04T09:10:10;102086.75;;;4.95;35.09
43621;BME280;29213;50.770;7.298;2023-04-04T09:12:36;102032.69;;;4.87;39.35
43621;BME280;29213;50.770;7.298;2023-04-04T09:15:03;101992.50;;;5.27;35.58
43621;BME280;29213;50.770;7.298;2023-04-04T09:17:29;101992.19;;;5.31;34.76
43621;BME280;29213;50.770;7.298;2023-04-04T09:19:55;102073.25;;;6.03;33.83
43621;BME280;29213;50.770;7.298;2023-04-04T09:22:21;102052.25;;;6.15;35.57
43621;BME280;29213;50.770;7.298;2023-04-04T09:24:46;101948.31;;;5.58;33.06
43621;BME280;29213;50.770;7.298;2023-04-04T09:27:14;102081.22;;;6.46;33.83
43621;BME280;29213;50.770;7.298;2023-04-04T09:29:40;101981.88;;;6.12;34.17
43621;BME280;29213;50.770;7.298;2023-04-04T09:32:13;101979.28;;;6.25;33.29
43621;BME280;29213;50.770;7.298;2023-04-04T09:34:38;101999.81;;;6.35;33.14
43621;BME280;29213;50.770;7.298;2023-04-04T09:37:05;102077.53;;;6.89;31.74
43621;BME280;29213;50.770;7.298;2023-04-04T09:39:37;102071.63;;;6.98;32.72
43621;BME280;29213;50.770;7.298;2023-04-04T09:42:03;101894.50;;;5.86;32.42
43621;BME280;29213;50.770;7.298;2023-04-04T09:44:29;101668.19;;;4.48;32.00
43621;BME280;29213;50.770;7.298;2023-04-04T09:47:26;102073.75;;;7.06;32.82
43621;BME280;29213;50.770;7.298;2023-04-04T09:49:53;101980.13;;;6.53;31.76
43621;BME280;29213;50.770;7.298;2023-04-04T09:52:21;102087.88;;;7.45;32.64
43621;BME280;29213;50.770;7.298;2023-04-04T09:54:54;101894.88;;;6.48;31.90
43621;BME280;29213;50.770;7.298;2023-04-04T09:57:21;102011.19;;;7.29;30.56
43621;BME280;29213;50.770;7.298;2023-04-04T09:59:46;101661.38;;;5.41;31.97
43621;BME280;29213;50.770;7.298;2023-04-04T10:02:12;101883.41;;;7.13;32.43
43621;BME280;29213;50.770;7.298;2023-04-04T10:04:37;101844.69;;;7.23;31.64
43621;BME280;29213;50.770;7.298;2023-04-04T10:07:03;102052.16;;;8.75;31.51
43621;BME280;29213;50.770;7.298;2023-04-04T10:09:28;101896.31;;;8.03;30.82
43621;BME280;29213;50.770;7.298;2023-04-04T10:12:07;102016.16;;;8.82;29.36
43621;BME280;29213;50.770;7.298;2023-04-04T10:14:34;102014.38;;;8.82;30.24
43621;BME280;29213;50.770;7.298;2023-04-04T10:17:07;101701.44;;;7.13;29.54
43621;BME280;29213;50.770;7.298;2023-04-04T10:19:35;101961.59;;;8.78;28.83
43621;BME280;29213;50.770;7.298;2023-04-04T10:22:02;102038.25;;;9.30;28.56
43621;BME280;29213;50.770;7.298;2023-04-04T10:24:28;101960.22;;;8.25;27.90
43621;BME280;29213;50.770;7.298;2023-04-04T10:26:53;101917.38;;;7.69;28.46
43621;BME280;29213;50.770;7.298;2023-04-04T10:29:20;101986.56;;;8.28;29.31
43621;BME280;29213;50.770;7.298;2023-04-04T10:31:49;101887.50;;;8.03;29.56
43621;BME280;29213;50.770;7.298;2023-04-04T10:34:31;102035.59;;;9.30;29.11
43621;BME280;29213;50.770;7.298;2023-04-04T10:37:07;102033.69;;;9.55;28.70
43621;BME280;29213;50.770;7.298;2023-04-04T10:40:06;102028.13;;;9.69;28.33
43621;BME280;29213;50.770;7.298;2023-04-04T10:42:40;102029.59;;;9.62;27.69
43621;BME280;29213;50.770;7.298;2023-04-04T10:45:07;102022.78;;;9.81;28.87
43621;BME280;29213;50.770;7.298;2023-04-04T10:47:36;101965.25;;;9.68;28.30
43621;BME280;29213;50.770;7.298;2023-04-04T10:50:04;101883.06;;;9.42;28.48
43621;BME280;29213;50.770;7.298;2023-04-04T10:52:42;101939.72;;;9.77;27.55
43621;BME280;29213;50.770;7.298;2023-04-04T10:55:12;102015.56;;;10.48;28.03
43621;BME280;29213;50.770;7.298;2023-04-04T10:57:43;102005.47;;;10.30;26.75
43621;BME280;29213;50.770;7.298;2023-04-04T11:00:11;101926.72;;;9.95;25.57
43621;BME280;29213;50.770;7.298;2023-04-04T11:07:44;101997.78;;;10.91;25.17
43621;BME280;29213;50.770;7.298;2023-04-04T11:10:30;101933.44;;;10.53;25.34
43621;BME280;29213;50.770;7.298;2023-04-04T11:12:57;101997.63;;;11.14;25.49
43621;BME280;29213;50.770;7.298;2023-04-04T11:15:55;101995.41;;;11.19;24.81
43621;BME280;29213;50.770;7.298;2023-04-04T11:20:55;101867.13;;;10.08;26.01
43621;BME280;29213;50.770;7.298;2023-04-04T11:23:21;101952.34;;;10.72;25.98
43621;BME280;29213;50.770;7.298;2023-04-04T11:25:55;101980.13;;;11.21;26.45
43621;BME280;29213;50.770;7.298;2023-04-04T11:44:16;101934.41;;;11.97;25.58
43621;BME280;29213;50.770;7.298;2023-04-04T11:46:43;101937.34;;;12.23;25.26
43621;BME280;29213;50.770;7.298;2023-04-04T11:49:09;101943.94;;;12.49;24.70
43621;BME280;29213;50.770;7.298;2023-04-04T11:51:37;101883.53;;;12.08;23.71
43621;BME280;29213;50.770;7.298;2023-04-04T11:54:03;101890.53;;;12.19;23.13
43621;BME280;29213;50.770;7.298;2023-04-04T11:56:35;101901.44;;;12.46;23.73
43621;BME280;29213;50.770;7.298;2023-04-04T11:59:02;101913.78;;;12.66;24.40
43621;BME280;29213;50.770;7.298;2023-04-04T12:01:28;101891.72;;;12.54;23.55
43621;BME280;29213;50.770;7.298;2023-04-04T12:03:54;101919.81;;;12.78;23.17
43621;BME280;29213;50.770;7.298;2023-04-04T12:06:19;101749.41;;;11.47;23.29
43621;BME280;29213;50.770;7.298;2023-04-04T12:08:45;101510.97;;;9.82;23.69
43621;BME280;29213;50.770;7.298;2023-04-04T12:11:14;101929.44;;;12.32;23.03
43621;BME280;29213;50.770;7.298;2023-04-04T12:13:43;101814.38;;;11.26;22.70
43621;BME280;29213;50.770;7.298;2023-04-04T12:16:12;101865.97;;;12.06;23.26
43621;BME280;29213;50.770;7.298;2023-04-04T12:18:38;101794.03;;;11.94;24.03
43621;BME280;29213;50.770;7.298;2023-04-04T12:21:05;101870.63;;;12.61;22.91
43621;BME280;29213;50.770;7.298;2023-04-04T12:23:34;101780.97;;;12.39;23.87
43621;BME280;29213;50.770;7.298;2023-04-04T12:26:00;101862.56;;;13.09;22.57
43621;BME280;29213;50.770;7.298;2023-04-04T12:28:32;101815.25;;;13.09;23.00
43621;BME280;29213;50.770;7.298;2023-04-04T12:31:01;101859.41;;;13.42;22.33
43621;BME280;29213;50.770;7.298;2023-04-04T12:33:33;101864.69;;;13.33;22.63
43621;BME280;29213;50.770;7.298;2023-04-04T12:35:59;101814.81;;;13.14;22.89
43621;BME280;29213;50.770;7.298;2023-04-04T12:38:27;101853.13;;;13.69;22.21
43621;BME280;29213;50.770;7.298;2023-04-04T12:40:55;101674.66;;;13.07;22.33
43621;BME280;29213;50.770;7.298;2023-04-04T12:43:20;101902.16;;;14.86;22.18
43621;BME280;29213;50.770;7.298;2023-04-04T12:45:49;101589.56;;;13.29;21.71
43621;BME280;29213;50.770;7.298;2023-04-04T12:48:14;101873.53;;;15.21;21.03
43621;BME280;29213;50.770;7.298;2023-04-04T12:50:56;101813.94;;;15.17;21.82
43621;BME280;29213;50.770;7.298;2023-04-04T12:53:23;101801.41;;;15.34;21.25
43621;BME280;29213;50.770;7.298;2023-04-04T12:55:50;101806.13;;;15.82;20.40
43621;BME280;29213;50.770;7.298;2023-04-04T12:58:16;101766.50;;;15.84;19.56
43621;BME280;29213;50.770;7.298;2023-04-04T13:00:42;101824.69;;;16.42;20.12
43621;BME280;29213;50.770;7.298;2023-04-04T13:03:08;101578.84;;;15.16;19.70
43621;BME280;29213;50.770;7.298;2023-04-04T13:05:34;101833.41;;;16.92;19.82
43621;BME280;29213;50.770;7.298;2023-04-04T13:08:07;101821.59;;;17.02;19.56
43621;BME280;29213;50.770;7.298;2023-04-04T13:10:59;101839.22;;;17.36;18.94
43621;BME280;29213;50.770;7.298;2023-04-04T13:15:57;101814.72;;;17.46;18.48
43621;BME280;29213;50.770;7.298;2023-04-04T13:18:24;101540.91;;;15.76;18.55
43621;BME280;29213;50.770;7.298;2023-04-04T13:20:51;101641.88;;;16.65;18.08
43621;BME280;29213;50.770;7.298;2023-04-04T13:23:18;101817.41;;;18.08;17.74